Buford, North Dakota
Current Conditions -  °F | °C
As of 10:52 AM on Friday 24 Oct 2014 (Local Time) from KISN Reporting Station
Clear Clear  
Wind Chill: 57°   Ceiling: Unl
Heat Index: 57°   Visibility: 10mi
Dew Point: 38°   Wind: 16mph
Humidity: 49%   Direction: 260°W
Pressure: 29.91"   Gusts: 24mph
Location:  48.3082°N, 103.697°W
Report Text: KISN 241552Z AUTO 26014G21KT 10SM CLR 14/03 A2991 RMK AO2 SLP135 T01390033
Loading
Personal Weather Stations






























Interactive Weather Map
Tropical Storm Tracking
New forecast layout! Learn more

10-Day Weather Forecast

Advertisements
Track Severe Weather on mobile